Godman Army Air Field
KFTK : rendu visible

Aérodrome :











RETROUVEZ-NOUS SUR...

 
LOGIN :

S'inscrire | Disclaimer

   EN    FR    IT 

 









Légende :    VFR   VFR Marginal   IFR   IFR Intensif   IFR Très Intensif
Visi : 
Plafond : 
>= 8 km
>= 3000ft
5 à 8 km
1000 à 3000 ft
1500m à 5 km
500 à 1000 ft
800 à 1500m
200 à 500 ft
< 800m
< 200 ft
Symboles :   Orages  Brouillard  Fortes neiges  Fortes précipitations  Vent > 20 kt






- Altitude de l'aérodrome : 756 ft


KFTK - Godman Army Air Field

DERNIER METAR :
  • 230156Z AUTO 10005KT 10SM OVC150 01/M07 A3024 RMK AO2 SLP252 T00131072 $

METARs EXPIRÉS :
  • 230152Z AUTO 10005KT 10SM BKN150 01/M07 A3024 RMK AO2 SLP252 $
  • 230056Z AUTO 12003KT 10SM BKN170 02/M08 A3026 RMK AO2 SLP259 T00241081 $
  • 222356Z AUTO 14004KT 10SM BKN170 OVC190 03/M08 A3026 RMK AO2 SLP259 T00251080 10050 20024 55005 $

TAF TAF KFTK
Valide du 23 à 01h jusqu'au 24 à 07h UTC


230100Z 2301/2407 VRB06KT 9999 BKN200 QNH3020INS
BECMG 2314/2315 15009KT 9999 BKN080 620802 QNH3009INS
BECMG 2320/2321 13006KT 8000 -RA OVC010 620604 QNH3006INS
BECMG 2323/2324 12009KT 8000 -RA OVC008 620604 QNH2993INS TX05/2321Z TN00/2301Z



MET'MAP, la Météo Aéronautique d'un coup d'oeil ! - Copyright ORBIFLY Décembre 2007 - Disclaimer

ORBIFLY MET'MAP TEAM :

Programmation & Développement : Alexandra Zaïnal
Sur une idée originale de : Baudouin d'Aumeries
Assistance à la programmation : Marc-Olivier Méhu
Soutien technique & logistique : Manuel Goepfert

Contact : metmap@orbifly.com




SOURCES & CREDITS :

   NOAA       Earth
Advisory